Wray, Colorado
Current Conditions -  °F | °C
As of 4:55 AM on Monday 22 Dec 2014 (Local Time) from K2V5 Reporting Station
Clear Clear  
Wind Chill: 27°   Ceiling: Unl
Heat Index: 37°   Visibility: 10mi
Dew Point: 30°   Wind: 16mph
Humidity: 78%   Direction: 280°W
Pressure: 29.65"   Gusts: 24mph
Location:  40.08°N, 102.22°W
Report Text: K2V5 221155Z AUTO 28014G21KT 10SM CLR 03/M01 A2965 RMK AO2 T00251010 10048 20021
Loading
Personal Weather Stations






























Interactive Weather Map New forecast layout! Learn more

10-Day Weather Forecast

Advertisements
Track Severe Weather on mobile